createdAt,value
2023-04-27T00:01:09.919Z,4.20
2023-04-27T00:03:36.704Z,3.20
2023-04-27T00:06:03.638Z,4.30
2023-04-27T00:08:30.486Z,4.03
2023-04-27T00:10:58.851Z,4.90
2023-04-27T00:13:25.569Z,5.07
2023-04-27T00:15:52.685Z,3.90
2023-04-27T00:18:19.512Z,3.83
2023-04-27T00:20:46.195Z,3.80
2023-04-27T00:23:12.883Z,3.90
2023-04-27T00:25:39.718Z,3.10
2023-04-27T00:28:07.719Z,3.10
2023-04-27T00:30:34.361Z,4.17
2023-04-27T00:33:01.170Z,3.93
2023-04-27T00:35:27.854Z,3.60
2023-04-27T00:37:54.875Z,4.70
2023-04-27T00:40:21.781Z,3.63
2023-04-27T00:42:48.494Z,3.97
2023-04-27T00:45:16.696Z,3.77
2023-04-27T00:47:44.968Z,3.43
2023-04-27T00:50:11.979Z,3.30
2023-04-27T00:52:39.532Z,3.00
2023-04-27T00:55:12.050Z,3.77
2023-04-27T00:57:38.720Z,3.10
2023-04-27T01:00:06.739Z,4.33
2023-04-27T01:02:35.680Z,3.50
2023-04-27T01:05:03.409Z,3.20
2023-04-27T01:07:30.125Z,3.70
2023-04-27T01:09:56.781Z,3.10
2023-04-27T01:12:23.473Z,3.20
2023-04-27T01:14:50.183Z,3.00
2023-04-27T01:17:16.832Z,3.23
2023-04-27T01:19:44.824Z,3.70
2023-04-27T01:22:11.604Z,3.40
2023-04-27T01:24:39.633Z,3.50
2023-04-27T01:27:06.334Z,4.90
2023-04-27T01:29:33.166Z,2.67
2023-04-27T01:31:59.840Z,3.33
2023-04-27T01:34:26.625Z,3.50
2023-04-27T01:36:53.354Z,2.80
2023-04-27T01:39:20.061Z,3.00
2023-04-27T01:41:48.062Z,2.57
2023-04-27T01:44:14.712Z,2.83
2023-04-27T01:46:41.642Z,2.33
2023-04-27T01:49:08.579Z,2.20
2023-04-27T01:51:35.241Z,2.50
2023-04-27T01:54:02.037Z,2.30
2023-04-27T01:56:28.825Z,2.53
2023-04-27T01:58:56.810Z,2.50
2023-04-27T02:01:24.241Z,2.80
2023-04-27T02:03:51.161Z,2.30
2023-04-27T02:06:17.975Z,3.23
2023-04-27T02:08:44.783Z,2.77
2023-04-27T02:11:11.562Z,3.10
2023-04-27T02:13:38.326Z,2.67
2023-04-27T02:16:07.157Z,2.50
2023-04-27T02:18:33.853Z,2.77
2023-04-27T02:21:00.528Z,2.50
2023-04-27T02:23:27.301Z,2.23
2023-04-27T02:25:53.956Z,3.00
2023-04-27T02:28:20.667Z,2.30
2023-04-27T02:30:47.855Z,3.70
2023-04-27T02:33:15.827Z,3.00
2023-04-27T02:35:42.503Z,2.87
2023-04-27T02:38:09.211Z,3.20
2023-04-27T02:40:35.909Z,3.13
2023-04-27T02:43:02.580Z,3.20
2023-04-27T02:45:29.292Z,3.00
2023-04-27T02:47:56.062Z,2.57
2023-04-27T02:50:24.116Z,3.63
2023-04-27T02:52:50.855Z,3.20
2023-04-27T02:55:17.961Z,3.37
2023-04-27T02:57:45.091Z,3.30
2023-04-27T03:00:12.711Z,3.10
2023-04-27T03:02:39.596Z,3.80
2023-04-27T03:05:07.256Z,3.50
2023-04-27T03:07:35.369Z,3.80
2023-04-27T03:10:02.113Z,3.07
2023-04-27T03:12:28.855Z,4.03
2023-04-27T03:14:55.721Z,3.00
2023-04-27T03:17:22.453Z,3.57
2023-04-27T03:19:49.220Z,2.77
2023-04-27T03:22:15.975Z,3.63
2023-04-27T03:24:44.246Z,3.53
2023-04-27T03:27:11.878Z,2.83
2023-04-27T03:29:38.729Z,3.53
2023-04-27T03:32:06.108Z,3.80
2023-04-27T03:34:32.913Z,3.17
2023-04-27T03:36:59.636Z,3.10
2023-04-27T03:39:27.315Z,3.20
2023-04-27T03:41:55.372Z,3.57
2023-04-27T03:44:22.036Z,4.27
2023-04-27T03:46:48.738Z,3.70
2023-04-27T03:49:15.784Z,2.57
2023-04-27T03:51:42.604Z,3.40
2023-04-27T03:54:09.359Z,3.13
2023-04-27T03:56:36.130Z,3.90
2023-04-27T03:59:04.605Z,2.63
2023-04-27T04:01:31.246Z,3.57
2023-04-27T04:03:58.090Z,3.50
2023-04-27T04:06:25.002Z,3.00
2023-04-27T04:08:51.741Z,2.83
2023-04-27T04:11:18.462Z,2.27
2023-04-27T04:13:45.194Z,2.80
2023-04-27T04:16:13.277Z,2.97
2023-04-27T04:18:40.035Z,2.43
2023-04-27T04:21:06.782Z,2.70
2023-04-27T04:23:33.475Z,2.87
2023-04-27T04:26:00.193Z,3.40
2023-04-27T04:28:26.926Z,3.27
2023-04-27T04:30:53.722Z,2.90
2023-04-27T04:33:21.819Z,4.10
2023-04-27T04:35:48.608Z,4.47
2023-04-27T04:38:15.418Z,3.47
2023-04-27T04:40:43.844Z,3.27
2023-04-27T04:43:12.589Z,3.50
2023-04-27T04:45:39.358Z,3.50
2023-04-27T04:48:06.392Z,4.87
2023-04-27T04:50:34.580Z,3.60
2023-04-27T04:53:01.331Z,4.27
2023-04-27T04:55:28.017Z,4.43
2023-04-27T04:57:54.800Z,2.77
2023-04-27T05:00:21.845Z,3.90
2023-04-27T05:02:48.715Z,4.67
2023-04-27T05:05:15.664Z,4.10
2023-04-27T05:07:43.784Z,3.70
2023-04-27T05:10:10.756Z,4.17
2023-04-27T05:12:37.474Z,4.60
2023-04-27T05:15:04.833Z,5.60
2023-04-27T05:17:31.666Z,5.13
2023-04-27T05:19:58.409Z,4.10
2023-04-27T05:22:25.169Z,5.60
2023-04-27T05:24:53.338Z,4.40
2023-04-27T05:27:20.027Z,5.53
2023-04-27T05:29:46.696Z,6.07
2023-04-27T05:32:13.474Z,5.07
2023-04-27T05:34:40.185Z,4.40
2023-04-27T05:37:06.863Z,5.40
2023-04-27T05:39:33.558Z,4.20
2023-04-27T05:42:01.682Z,3.87
2023-04-27T05:44:28.489Z,4.60
2023-04-27T05:46:55.372Z,5.20
2023-04-27T05:49:22.333Z,5.13
2023-04-27T05:51:49.189Z,4.87
2023-04-27T05:54:19.615Z,5.83
2023-04-27T05:56:47.939Z,5.47
2023-04-27T05:59:34.087Z,4.73
2023-04-27T06:02:00.873Z,4.80
2023-04-27T06:04:27.776Z,5.07
2023-04-27T06:06:54.538Z,4.53
2023-04-27T06:09:21.240Z,5.07
2023-04-27T06:11:47.943Z,5.83
2023-04-27T06:14:16.104Z,4.57
2023-04-27T06:16:43.054Z,5.40
2023-04-27T06:19:09.806Z,5.07
2023-04-27T06:21:36.584Z,5.00
2023-04-27T06:24:03.589Z,5.53
2023-04-27T06:26:30.354Z,4.63
2023-04-27T06:28:57.099Z,5.10
2023-04-27T06:31:26.295Z,5.00
2023-04-27T06:33:53.074Z,4.87
2023-04-27T06:36:19.746Z,4.73
2023-04-27T06:38:46.475Z,4.97
2023-04-27T06:41:13.324Z,4.30
2023-04-27T06:43:39.982Z,5.63
2023-04-27T06:46:06.632Z,4.90
2023-04-27T06:48:34.639Z,4.73
2023-04-27T06:51:01.325Z,4.97
2023-04-27T06:53:28.007Z,4.93
2023-04-27T06:55:55.276Z,5.63
2023-04-27T06:58:21.929Z,5.07
2023-04-27T07:00:48.677Z,5.40
2023-04-27T07:03:15.539Z,5.07
2023-04-27T07:05:43.959Z,4.77
2023-04-27T07:08:10.916Z,4.07
2023-04-27T07:10:37.592Z,4.33
2023-04-27T07:13:05.498Z,4.10
2023-04-27T07:15:33.418Z,3.80
2023-04-27T07:18:00.273Z,3.87
2023-04-27T07:20:26.964Z,4.67
2023-04-27T07:22:55.359Z,4.97
2023-04-27T07:25:22.057Z,5.43
2023-04-27T07:27:48.719Z,5.17
2023-04-27T07:30:15.415Z,4.67
2023-04-27T07:32:42.347Z,4.50
2023-04-27T07:35:09.854Z,5.10
2023-04-27T07:37:37.117Z,5.50
2023-04-27T07:40:06.348Z,4.70
2023-04-27T07:42:33.026Z,5.10
2023-04-27T07:44:59.672Z,4.97
2023-04-27T07:47:26.395Z,3.50
2023-04-27T07:49:53.096Z,4.30
2023-04-27T07:52:19.806Z,3.73
2023-04-27T07:54:46.435Z,4.30
2023-04-27T07:57:14.383Z,3.50
2023-04-27T07:59:41.074Z,3.50
2023-04-27T08:02:19.051Z,4.07
2023-04-27T08:04:47.406Z,3.70
2023-04-27T08:07:15.767Z,3.00
2023-04-27T08:09:42.742Z,2.67
2023-04-27T08:12:09.411Z,2.87
2023-04-27T08:14:37.430Z,2.67
2023-04-27T08:17:04.210Z,2.70
2023-04-27T08:19:30.942Z,2.87
2023-04-27T08:21:57.604Z,2.57
2023-04-27T08:24:24.309Z,2.50
2023-04-27T08:26:50.961Z,2.60
2023-04-27T08:29:27.058Z,2.27
2023-04-27T08:32:00.051Z,2.73
2023-04-27T08:34:26.978Z,2.37
2023-04-27T08:36:53.716Z,2.40
2023-04-27T08:39:20.987Z,2.00
2023-04-27T08:41:47.797Z,2.37
2023-04-27T08:44:14.565Z,2.30
2023-04-27T08:46:41.657Z,2.00
2023-04-27T08:49:09.651Z,1.73
2023-04-27T08:51:36.615Z,2.30
2023-04-27T08:54:03.419Z,2.00
2023-04-27T08:56:30.737Z,2.20
2023-04-27T08:58:58.804Z,2.53
2023-04-27T09:01:25.973Z,2.33
2023-04-27T09:03:56.773Z,2.40
2023-04-27T09:06:31.553Z,2.30
2023-04-27T09:08:58.865Z,2.53
2023-04-27T09:11:30.496Z,2.43
2023-04-27T09:13:58.355Z,2.30
2023-04-27T09:16:25.985Z,1.63
2023-04-27T09:18:52.652Z,2.17
2023-04-27T09:21:23.433Z,1.60
2023-04-27T09:23:52.284Z,1.77
2023-04-27T09:26:23.853Z,2.63
2023-04-27T09:28:52.444Z,2.10
2023-04-27T09:31:19.640Z,2.30
2023-04-27T09:33:53.962Z,2.30
2023-04-27T09:36:21.073Z,1.50
2023-04-27T09:38:48.424Z,1.90
2023-04-27T09:41:17.057Z,1.83
2023-04-27T09:43:44.292Z,1.70
2023-04-27T09:46:12.091Z,2.50
2023-04-27T09:48:39.291Z,1.90
2023-04-27T09:51:06.295Z,2.17
2023-04-27T09:53:37.138Z,1.47
2023-04-27T09:56:19.944Z,1.77
2023-04-27T09:59:10.091Z,2.27
2023-04-27T10:01:41.103Z,1.90
2023-04-27T10:04:21.947Z,3.53
2023-04-27T10:06:59.132Z,4.30
2023-04-27T10:09:27.121Z,2.50
2023-04-27T10:11:55.492Z,2.27
2023-04-27T10:14:23.450Z,2.00
2023-04-27T10:16:51.849Z,1.70
2023-04-27T10:19:19.305Z,1.50
2023-04-27T10:21:53.458Z,2.20
2023-04-27T10:24:30.819Z,2.83
2023-04-27T10:27:02.637Z,1.83
2023-04-27T10:29:35.981Z,1.60
2023-04-27T10:32:06.624Z,2.13
2023-04-27T10:34:35.225Z,2.10
2023-04-27T10:37:05.861Z,2.33
2023-04-27T10:39:46.860Z,3.00
2023-04-27T10:42:26.464Z,2.10
2023-04-27T10:44:56.297Z,2.23
2023-04-27T10:47:23.095Z,2.40
2023-04-27T10:49:52.793Z,2.10
2023-04-27T10:52:19.447Z,2.10
2023-04-27T10:54:46.440Z,2.77
2023-04-27T10:57:13.400Z,2.00
2023-04-27T10:59:50.042Z,2.20
2023-04-27T11:02:16.765Z,1.83
2023-04-27T11:04:43.445Z,2.40
2023-04-27T11:07:10.564Z,1.73
2023-04-27T11:09:38.307Z,2.20
2023-04-27T11:12:07.461Z,2.40
2023-04-27T11:14:34.836Z,2.27
2023-04-27T11:17:03.082Z,2.50
2023-04-27T11:19:29.771Z,2.33
2023-04-27T11:22:03.290Z,1.93
2023-04-27T11:24:30.034Z,1.47
2023-04-27T11:26:56.742Z,2.43
2023-04-27T11:29:23.473Z,1.67
2023-04-27T11:31:51.726Z,2.53
2023-04-27T11:34:22.866Z,1.90
2023-04-27T11:37:10.820Z,1.63
2023-04-27T11:39:45.295Z,1.90
2023-04-27T11:42:16.492Z,1.70
2023-04-27T11:44:43.199Z,2.00
2023-04-27T11:47:18.274Z,1.97
2023-04-27T11:49:48.657Z,2.10
2023-04-27T11:52:15.324Z,2.57
2023-04-27T11:54:47.971Z,2.30
2023-04-27T11:57:14.713Z,1.87
2023-04-27T11:59:41.409Z,1.83
2023-04-27T12:02:08.657Z,1.93
2023-04-27T12:04:35.588Z,2.13
2023-04-27T12:07:03.986Z,2.57
2023-04-27T12:09:30.712Z,2.40
2023-04-27T12:11:57.701Z,2.50
2023-04-27T12:14:24.432Z,2.50
2023-04-27T12:16:51.172Z,1.67
2023-04-27T12:19:17.874Z,2.23
2023-04-27T12:21:44.528Z,2.07
2023-04-27T12:24:12.903Z,1.80
2023-04-27T12:26:39.956Z,2.30
2023-04-27T12:29:16.591Z,1.80
2023-04-27T12:35:02.367Z,2.20
2023-04-27T12:37:29.046Z,1.63
2023-04-27T12:39:57.063Z,1.53
2023-04-27T12:42:23.938Z,2.20
2023-04-27T12:44:50.763Z,1.90
2023-04-27T12:47:34.586Z,1.60
2023-04-27T12:50:04.739Z,1.73
2023-04-27T12:52:32.056Z,2.20
2023-04-27T12:55:00.107Z,2.20
2023-04-27T12:57:26.863Z,2.27
2023-04-27T12:59:53.534Z,2.33
2023-04-27T13:02:20.326Z,2.10
2023-04-27T13:04:47.154Z,2.13
2023-04-27T13:07:14.005Z,2.00
2023-04-27T13:09:40.666Z,2.00
2023-04-27T13:12:08.755Z,1.90
2023-04-27T13:14:35.400Z,1.63
2023-04-27T13:17:02.097Z,2.00
2023-04-27T13:19:28.758Z,2.20
2023-04-27T13:21:55.430Z,1.60
2023-04-27T13:24:22.111Z,2.03
2023-04-27T13:26:48.735Z,2.10
2023-04-27T13:29:17.244Z,1.63
2023-04-27T13:31:43.929Z,2.03
2023-04-27T13:34:10.733Z,2.10
2023-04-27T13:36:37.459Z,2.00
2023-04-27T13:39:04.200Z,1.87
2023-04-27T13:41:31.264Z,1.60
2023-04-27T13:43:57.955Z,1.53
2023-04-27T13:46:26.016Z,2.13
2023-04-27T13:48:52.735Z,3.37
2023-04-27T13:51:19.439Z,2.10
2023-04-27T13:53:46.478Z,1.50
2023-04-27T13:56:13.176Z,2.27
2023-04-27T13:58:39.845Z,1.70
2023-04-27T14:01:06.520Z,2.03
2023-04-27T14:03:34.729Z,1.50
2023-04-27T14:06:01.540Z,1.27
2023-04-27T14:08:28.260Z,1.60
2023-04-27T14:10:55.343Z,1.80
2023-04-27T14:13:22.033Z,1.53
2023-04-27T14:15:48.714Z,1.40
2023-04-27T14:18:15.783Z,1.80
2023-04-27T14:20:44.705Z,1.93
2023-04-27T14:23:11.721Z,2.00
2023-04-27T14:25:38.439Z,1.43
2023-04-27T14:28:06.353Z,1.23
2023-04-27T14:30:33.656Z,1.50
2023-04-27T14:33:00.435Z,1.40
2023-04-27T14:35:27.545Z,1.93
2023-04-27T14:37:55.546Z,1.13
2023-04-27T14:40:22.255Z,1.23
2023-04-27T14:42:48.920Z,1.60
2023-04-27T14:45:15.551Z,1.70
2023-04-27T14:47:42.303Z,1.80
2023-04-27T14:50:09.268Z,1.50
2023-04-27T14:52:35.925Z,1.63
2023-04-27T14:55:04.357Z,1.80
2023-04-27T14:57:31.025Z,1.93
2023-04-27T14:59:57.700Z,1.77
2023-04-27T15:02:24.532Z,1.60
2023-04-27T15:04:51.406Z,1.20
2023-04-27T15:07:18.144Z,1.90
2023-04-27T15:09:44.777Z,1.87
2023-04-27T15:12:12.917Z,1.50
2023-04-27T15:14:39.569Z,1.93
2023-04-27T15:17:06.267Z,1.73
2023-04-27T15:19:32.906Z,1.80
2023-04-27T15:21:59.535Z,1.57
2023-04-27T15:24:26.162Z,1.30
2023-04-27T15:26:52.788Z,1.47
2023-04-27T15:29:20.806Z,2.27
2023-04-27T15:31:47.532Z,1.27
2023-04-27T15:34:14.322Z,1.40
2023-04-27T15:36:40.970Z,1.60
2023-04-27T15:39:09.881Z,2.13
2023-04-27T15:41:36.823Z,1.70
2023-04-27T15:44:05.455Z,1.80
2023-04-27T15:46:33.520Z,1.83
2023-04-27T15:49:00.262Z,1.30
2023-04-27T15:51:26.999Z,1.40
2023-04-27T15:53:53.748Z,1.73
2023-04-27T15:56:20.415Z,2.03
2023-04-27T15:58:47.178Z,1.97
2023-04-27T16:01:14.003Z,1.40
2023-04-27T16:03:42.206Z,1.83
2023-04-27T16:06:08.937Z,1.90
2023-04-27T16:08:35.716Z,1.67
2023-04-27T16:11:02.496Z,1.83
2023-04-27T16:13:29.213Z,1.90
2023-04-27T16:15:55.978Z,1.87
2023-04-27T16:18:22.710Z,2.03
2023-04-27T16:20:50.690Z,1.80
2023-04-27T16:23:18.449Z,1.40
2023-04-27T16:25:45.149Z,1.83
2023-04-27T16:28:11.930Z,1.60
2023-04-27T16:30:38.795Z,1.60
2023-04-27T16:33:05.674Z,1.20
2023-04-27T16:35:32.470Z,1.97
2023-04-27T16:38:00.629Z,1.13
2023-04-27T16:40:27.388Z,1.63
2023-04-27T16:42:54.202Z,1.53
2023-04-27T16:45:21.078Z,1.80
2023-04-27T16:47:47.845Z,1.70
2023-04-27T16:50:14.666Z,1.93
2023-04-27T16:52:41.350Z,1.20
2023-04-27T16:55:09.838Z,1.73
2023-04-27T16:57:36.636Z,1.37
2023-04-27T17:00:03.846Z,1.57
2023-04-27T17:02:30.761Z,1.73
2023-04-27T17:04:57.601Z,1.70
2023-04-27T17:07:24.437Z,1.00
2023-04-27T17:09:51.188Z,1.47
2023-04-27T17:12:19.150Z,1.43
2023-04-27T17:14:45.844Z,1.70
2023-04-27T17:17:12.497Z,1.43
2023-04-27T17:19:39.419Z,1.80
2023-04-27T17:22:06.125Z,1.50
2023-04-27T17:24:32.788Z,1.47
2023-04-27T17:26:59.466Z,1.80
2023-04-27T17:29:27.437Z,1.30
2023-04-27T17:31:54.120Z,1.30
2023-04-27T17:34:20.818Z,1.47
2023-04-27T17:36:47.505Z,1.50
2023-04-27T17:39:14.581Z,1.30
2023-04-27T17:41:41.569Z,1.10
2023-04-27T17:44:08.236Z,1.03
2023-04-27T17:46:37.974Z,1.30
2023-04-27T17:49:04.725Z,1.10
2023-04-27T17:51:32.832Z,0.93
2023-04-27T17:53:59.492Z,1.20
2023-04-27T17:56:26.164Z,1.13
2023-04-27T17:58:53.090Z,1.40
2023-04-27T18:01:19.777Z,1.67
2023-04-27T18:03:47.935Z,1.13
2023-04-27T18:06:14.700Z,1.53
2023-04-27T18:08:41.368Z,1.80
2023-04-27T18:11:08.018Z,1.53
2023-04-27T18:13:34.701Z,2.03
2023-04-27T18:16:01.504Z,1.70
2023-04-27T18:18:28.378Z,1.80
2023-04-27T18:20:56.372Z,1.87
2023-04-27T18:23:23.168Z,2.27
2023-04-27T18:25:50.046Z,1.73
2023-04-27T18:28:16.764Z,3.20
2023-04-27T18:30:43.473Z,2.23
2023-04-27T18:33:10.156Z,1.83
2023-04-27T18:35:37.007Z,1.70
2023-04-27T18:38:05.025Z,2.37
2023-04-27T18:40:31.837Z,1.50
2023-04-27T18:42:58.591Z,2.00
2023-04-27T18:45:25.246Z,2.20
2023-04-27T18:47:51.986Z,1.60
2023-04-27T18:50:19.058Z,2.10
2023-04-27T18:52:45.984Z,1.60
2023-04-27T18:55:14.060Z,1.80
2023-04-27T18:57:40.703Z,1.90
2023-04-27T19:00:08.654Z,1.90
2023-04-27T19:02:35.542Z,2.00
2023-04-27T19:07:34.280Z,1.60
2023-04-27T19:10:01.039Z,1.60
2023-04-27T19:12:29.474Z,1.90
2023-04-27T19:14:56.269Z,1.57
2023-04-27T19:17:23.199Z,1.93
2023-04-27T19:19:50.019Z,2.20
2023-04-27T19:22:16.723Z,2.17
2023-04-27T19:24:43.420Z,2.40
2023-04-27T19:27:10.111Z,2.27
2023-04-27T19:29:50.492Z,1.90
2023-04-27T19:32:17.487Z,2.40
2023-04-27T19:34:44.127Z,1.80
2023-04-27T19:37:10.912Z,1.63
2023-04-27T19:39:38.070Z,2.20
2023-04-27T19:42:04.945Z,1.93
2023-04-27T19:44:31.664Z,1.90
2023-04-27T19:46:59.649Z,2.30
2023-04-27T19:49:30.048Z,2.50
2023-04-27T19:51:57.143Z,2.40
2023-04-27T19:54:23.862Z,1.40
2023-04-27T19:56:50.540Z,2.03
2023-04-27T19:59:17.318Z,2.30
2023-04-27T20:01:44.767Z,2.20
2023-04-27T20:04:13.275Z,1.80
2023-04-27T20:06:40.255Z,1.87
2023-04-27T20:09:07.054Z,1.80
2023-04-27T20:11:33.734Z,2.03
2023-04-27T20:14:00.491Z,2.60
2023-04-27T20:16:27.295Z,2.00
2023-04-27T20:18:54.157Z,1.90
2023-04-27T20:21:22.263Z,1.97
2023-04-27T20:23:49.412Z,2.17
2023-04-27T20:26:16.199Z,2.57
2023-04-27T20:28:43.067Z,2.60
2023-04-27T20:31:10.095Z,1.80
2023-04-27T20:33:36.861Z,1.47
2023-04-27T20:36:16.115Z,1.70
2023-04-27T20:38:45.453Z,2.33
2023-04-27T20:41:12.214Z,1.90
2023-04-27T20:43:39.004Z,1.60
2023-04-27T20:46:06.510Z,1.83
2023-04-27T20:48:33.303Z,1.70
2023-04-27T20:51:00.195Z,1.67
2023-04-27T20:53:26.944Z,2.40
2023-04-27T20:55:54.963Z,1.73
2023-04-27T20:58:21.829Z,1.77
2023-04-27T21:00:48.635Z,1.93
2023-04-27T21:03:15.526Z,2.53
2023-04-27T21:05:42.440Z,2.40
2023-04-27T21:08:09.123Z,2.20
2023-04-27T21:10:35.851Z,2.73
2023-04-27T21:13:03.860Z,1.77
2023-04-27T21:15:30.579Z,1.47
2023-04-27T21:17:57.378Z,2.10
2023-04-27T21:20:24.148Z,2.90
2023-04-27T21:22:50.857Z,1.90
2023-04-27T21:25:17.727Z,2.07
2023-04-27T21:27:44.509Z,3.20
2023-04-27T21:30:13.691Z,2.50
2023-04-27T21:32:40.404Z,3.00
2023-04-27T21:35:08.277Z,1.53
2023-04-27T21:37:35.348Z,1.93
2023-04-27T21:40:02.239Z,2.60
2023-04-27T21:42:28.935Z,1.87
2023-04-27T21:44:56.561Z,2.30
2023-04-27T21:47:24.801Z,2.40
2023-04-27T21:49:52.558Z,1.70
2023-04-27T21:52:19.413Z,2.00
2023-04-27T21:54:46.370Z,1.90
2023-04-27T21:57:13.137Z,1.73
2023-04-27T21:59:39.802Z,1.90
2023-04-27T22:02:06.722Z,2.40
2023-04-27T22:04:35.951Z,1.90
2023-04-27T22:07:02.877Z,1.87
2023-04-27T22:09:29.569Z,2.57
2023-04-27T22:11:56.284Z,1.80
2023-04-27T22:14:23.070Z,1.90
2023-04-27T22:16:49.816Z,2.17
2023-04-27T22:19:16.578Z,2.03
2023-04-27T22:21:44.724Z,2.30
2023-04-27T22:24:11.485Z,2.07
2023-04-27T22:26:38.222Z,2.43
2023-04-27T22:29:04.969Z,1.90
2023-04-27T22:31:31.792Z,2.50
2023-04-27T22:33:58.713Z,1.73
2023-04-27T22:36:25.502Z,1.50
2023-04-27T22:38:53.539Z,1.80
2023-04-27T22:41:20.401Z,2.23
2023-04-27T22:43:47.068Z,2.20
2023-04-27T22:46:13.811Z,1.90
2023-04-27T22:48:40.619Z,2.50
2023-04-27T22:51:08.541Z,2.03
2023-04-27T22:53:35.265Z,1.80
2023-04-27T22:56:03.346Z,2.17
2023-04-27T22:58:30.142Z,2.07
2023-04-27T23:00:56.850Z,2.23
2023-04-27T23:03:23.876Z,2.10
2023-04-27T23:05:50.776Z,1.87
2023-04-27T23:08:17.500Z,2.17
2023-04-27T23:10:44.167Z,2.43
2023-04-27T23:13:12.372Z,2.93
2023-04-27T23:15:39.091Z,2.70
2023-04-27T23:18:06.023Z,2.13
2023-04-27T23:20:32.773Z,2.13
2023-04-27T23:22:59.467Z,2.00
2023-04-27T23:25:26.269Z,2.17
2023-04-27T23:27:53.237Z,2.23
2023-04-27T23:30:22.044Z,2.30
2023-04-27T23:32:48.929Z,2.60
2023-04-27T23:35:15.726Z,2.27
2023-04-27T23:37:42.651Z,2.53
2023-04-27T23:40:09.833Z,2.20
2023-04-27T23:42:36.534Z,2.57
2023-04-27T23:48:39.386Z,2.37
2023-04-27T23:51:06.079Z,1.60
2023-04-27T23:53:32.798Z,2.93
2023-04-27T23:55:59.571Z,2.37
2023-04-27T23:58:26.357Z,2.27
